Time;durP1;ratioP1;P1;durP2;ratioP2;P2;SDS_P1;SDS_P2;PMS_P1;PMS_P2;Temp;Humidity;BMP_temperature;BMP_pressure;BME280_temperature;BME280_humidity;BME280_pressure;Samples;Min_cycle;Max_cycle;Signal;HPM_P1;HPM_P2
2022/09/14 00:01:10;;;;;;;7.15;4.22;;;;;;;21.53;100.00;99125.88;5110803;28;20027;-64
2022/09/14 00:03:39;;;;;;;6.15;3.70;;;;;;;21.52;100.00;99116.03;5110730;28;20023;-64
2022/09/14 00:06:07;;;;;;;6.70;3.88;;;;;;;21.52;100.00;99110.63;5110432;28;20029;-64
2022/09/14 00:08:33;;;;;;;6.57;3.90;;;;;;;21.47;100.00;99086.69;5110385;28;20028;-64
2022/09/14 00:11:04;;;;;;;9.35;4.18;;;;;;;21.54;100.00;99105.91;5110695;28;20023;-64
2022/09/14 00:13:29;;;;;;;9.57;4.28;;;;;;;21.49;100.00;99105.50;5111137;28;20457;-64
2022/09/14 00:15:55;;;;;;;7.32;3.95;;;;;;;21.47;100.00;99093.94;5110100;28;20111;-64
2022/09/14 00:18:20;;;;;;;6.45;4.22;;;;;;;21.45;100.00;99088.66;5105433;28;20375;-64
2022/09/14 00:20:46;;;;;;;8.98;4.25;;;;;;;21.50;100.00;99090.97;5089988;28;20016;-64
2022/09/14 00:23:11;;;;;;;6.97;4.25;;;;;;;21.52;100.00;99099.78;5089667;28;20052;-64
2022/09/14 00:25:37;;;;;;;6.75;4.13;;;;;;;21.51;100.00;99100.78;5089594;28;20024;-64
2022/09/14 00:28:02;;;;;;;7.32;4.03;;;;;;;21.47;100.00;99105.63;5089332;28;20493;-64
2022/09/14 00:30:28;;;;;;;8.38;4.60;;;;;;;21.42;100.00;99104.31;5087670;28;20019;-64
2022/09/14 00:32:53;;;;;;;9.98;4.85;;;;;;;21.41;100.00;99108.03;5086931;28;20016;-65
2022/09/14 00:35:19;;;;;;;9.20;4.82;;;;;;;21.42;100.00;99098.91;5086268;28;20031;-65
2022/09/14 00:37:47;;;;;;;7.30;4.47;;;;;;;21.40;100.00;99114.47;5086818;28;20020;-65
2022/09/14 00:40:13;;;;;;;9.88;4.70;;;;;;;21.39;100.00;99126.25;5092203;28;20023;-65
2022/09/14 00:42:38;;;;;;;10.05;4.75;;;;;;;21.34;100.00;99123.13;5106911;28;20485;-65
2022/09/14 00:45:24;;;;;;;9.70;5.35;;;;;;;21.25;100.00;99105.03;5104710;28;20012;-66
2022/09/14 00:47:51;;;;;;;9.32;4.90;;;;;;;21.30;100.00;99108.16;5110324;28;20118;-65
2022/09/14 00:50:18;;;;;;;12.52;5.20;;;;;;;21.27;100.00;99112.00;5109248;28;20101;-64
2022/09/14 00:52:47;;;;;;;9.20;4.85;;;;;;;21.27;100.00;99130.94;5108810;28;20032;-65
2022/09/14 00:55:17;;;;;;;13.23;5.45;;;;;;;21.21;100.00;99127.91;5107855;28;20028;-64
2022/09/14 00:57:48;;;;;;;9.85;4.75;;;;;;;21.17;100.00;99131.91;5108013;28;20027;-64
2022/09/14 01:00:39;;;;;;;11.80;5.70;;;;;;;21.14;100.00;99145.69;5108158;28;20051;-64
2022/09/14 01:03:04;;;;;;;7.93;5.07;;;;;;;21.11;100.00;99148.66;5096348;28;20109;-65
2022/09/14 01:06:11;;;;;;;8.98;5.03;;;;;;;20.94;100.00;99159.09;5089008;28;20040;-65
2022/09/14 01:08:39;;;;;;;11.13;6.45;;;;;;;20.87;100.00;99171.44;5089290;28;20099;-66
2022/09/14 01:11:25;;;;;;;8.55;6.00;;;;;;;20.88;100.00;99175.00;5088403;28;20026;-67
2022/09/14 01:14:02;;;;;;;17.48;6.97;;;;;;;20.94;100.00;99202.38;5086893;28;20034;-68
2022/09/14 01:16:40;;;;;;;10.98;7.00;;;;;;;20.97;100.00;99206.69;5090415;28;20117;-69
2022/09/14 01:19:16;;;;;;;13.35;6.63;;;;;;;20.94;100.00;99169.94;5110814;28;20028;-69
2022/09/14 01:21:43;;;;;;;11.23;6.43;;;;;;;20.99;100.00;99169.53;5110532;28;20467;-68
2022/09/14 01:24:24;;;;;;;10.23;6.20;;;;;;;21.02;100.00;99171.13;5115449;28;20052;-68
2022/09/14 01:27:24;;;;;;;13.18;6.45;;;;;;;20.95;100.00;99174.31;5115025;28;20042;-68
2022/09/14 01:30:00;;;;;;;11.88;6.70;;;;;;;20.87;100.00;99184.97;5115204;28;20509;-68
2022/09/14 01:32:48;;;;;;;13.93;6.75;;;;;;;20.81;100.00;99169.28;5119967;28;20034;-68
2022/09/14 01:35:31;;;;;;;13.70;7.43;;;;;;;20.73;100.00;99177.22;5123423;28;20023;-68
2022/09/14 01:38:06;;;;;;;12.98;7.93;;;;;;;20.67;100.00;99177.72;5107225;28;20110;-68
2022/09/14 01:40:37;;;;;;;12.15;8.80;;;;;;;20.62;100.00;99169.19;5127236;28;20155;-68
2022/09/14 01:43:12;;;;;;;12.73;8.40;;;;;;;20.64;100.00;99171.75;5124174;28;20047;-69
2022/09/14 01:45:42;;;;;;;14.43;8.88;;;;;;;20.65;100.00;99171.63;5125151;28;20088;-69
2022/09/14 01:48:10;;;;;;;12.63;7.75;;;;;;;20.68;100.00;99174.06;5123604;28;20033;-69
2022/09/14 01:50:48;;;;;;;13.95;8.30;;;;;;;20.65;100.00;99163.53;5122070;28;20031;-69
2022/09/14 01:53:41;;;;;;;14.52;8.40;;;;;;;20.62;100.00;99168.34;5119672;28;20446;-69
2022/09/14 01:56:19;;;;;;;14.70;8.27;;;;;;;20.55;100.00;99150.94;5115592;28;20031;-68
2022/09/14 01:58:50;;;;;;;14.70;8.27;;;;;;;20.55;100.00;99142.81;5093996;28;20447;-68
2022/09/14 02:01:21;;;;;;;13.77;8.60;;;;;;;20.50;100.00;99143.22;5102059;28;20027;-68
2022/09/14 02:03:51;;;;;;;15.20;8.80;;;;;;;20.56;100.00;99137.28;5123798;28;20024;-69
2022/09/14 02:06:19;;;;;;;12.98;8.63;;;;;;;20.56;100.00;99131.88;5122329;28;20110;-69
2022/09/14 02:08:46;;;;;;;14.27;9.43;;;;;;;20.55;100.00;99119.38;5115347;28;20023;-68
2022/09/14 02:11:11;;;;;;;18.73;9.13;;;;;;;20.56;100.00;99118.38;5115513;28;20034;-68
2022/09/14 02:13:37;;;;;;;15.98;9.32;;;;;;;20.59;100.00;99110.00;5115535;28;20040;-68
2022/09/14 02:16:03;;;;;;;14.85;8.43;;;;;;;20.53;100.00;99121.34;5114886;28;20045;-68
2022/09/14 02:18:28;;;;;;;12.95;8.38;;;;;;;20.46;100.00;99112.06;5113494;28;20028;-68
2022/09/14 02:20:59;;;;;;;15.27;10.05;;;;;;;20.39;100.00;99112.72;5113221;28;20181;-68
2022/09/14 02:23:25;;;;;;;16.90;11.10;;;;;;;20.36;100.00;99113.84;5112680;28;20066;-68
2022/09/14 02:25:51;;;;;;;17.48;9.50;;;;;;;20.35;100.00;99106.75;5112736;28;20475;-68
2022/09/14 02:28:16;;;;;;;19.33;10.75;;;;;;;20.39;100.00;99107.34;5112486;28;20023;-68
2022/09/14 02:30:48;;;;;;;17.95;10.35;;;;;;;20.37;100.00;99085.84;5112169;28;20189;-68
2022/09/14 02:33:27;;;;;;;16.88;10.15;;;;;;;20.43;100.00;99088.00;5112560;28;20479;-68
2022/09/14 02:35:54;;;;;;;14.40;10.30;;;;;;;20.44;100.00;99083.47;5112631;28;20049;-68
2022/09/14 02:38:48;;;;;;;15.75;10.80;;;;;;;20.42;100.00;99093.56;5111924;28;20038;-68
2022/09/14 02:41:42;;;;;;;18.73;10.38;;;;;;;20.42;100.00;99086.31;5111398;28;20378;-67
2022/09/14 02:44:41;;;;;;;20.35;11.35;;;;;;;20.43;100.00;99070.94;5111474;28;20032;-68
2022/09/14 02:47:18;;;;;;;18.45;10.68;;;;;;;20.44;100.00;99062.72;5067150;28;20054;-67
2022/09/14 02:50:02;;;;;;;19.77;11.38;;;;;;;20.39;100.00;99048.78;5107848;28;20097;-67
2022/09/14 02:52:46;;;;;;;18.17;11.45;;;;;;;20.45;100.00;99061.72;5112199;28;20031;-67
2022/09/14 02:55:16;;;;;;;15.77;11.07;;;;;;;20.44;100.00;99056.47;5111880;28;20027;-67
2022/09/14 02:58:08;;;;;;;18.75;10.60;;;;;;;20.40;100.00;99045.06;5111575;28;20030;-67
2022/09/14 03:00:43;;;;;;;15.63;10.13;;;;;;;20.38;100.00;99040.78;5111738;28;20027;-67
2022/09/14 03:03:11;;;;;;;16.35;10.48;;;;;;;20.32;100.00;99025.97;5112151;28;20038;-67
2022/09/14 03:05:36;;;;;;;17.65;11.05;;;;;;;20.39;100.00;99054.16;5111831;28;20019;-67
2022/09/14 03:08:03;;;;;;;16.90;10.63;;;;;;;20.39;100.00;99040.66;5111407;28;20109;-67
2022/09/14 03:10:30;;;;;;;15.50;10.48;;;;;;;20.39;100.00;99029.00;5111780;28;20019;-68
2022/09/14 03:12:56;;;;;;;17.55;11.13;;;;;;;20.37;100.00;99030.97;5111733;28;20023;-68
2022/09/14 03:15:21;;;;;;;16.77;11.10;;;;;;;20.35;100.00;99023.00;5111448;28;20031;-67
2022/09/14 03:17:48;;;;;;;16.65;10.57;;;;;;;20.31;100.00;99015.31;5111188;28;20024;-68
2022/09/14 03:20:18;;;;;;;18.45;11.35;;;;;;;20.30;100.00;99006.34;5091113;28;20597;-68
2022/09/14 03:22:44;;;;;;;19.92;11.50;;;;;;;20.22;100.00;98995.38;5097419;28;20126;-67
2022/09/14 03:25:10;;;;;;;17.52;11.63;;;;;;;20.25;100.00;98996.94;5111450;28;20061;-68
2022/09/14 03:27:36;;;;;;;20.48;11.75;;;;;;;20.25;100.00;98997.78;5111087;28;20063;-67
2022/09/14 03:30:04;;;;;;;22.00;12.82;;;;;;;20.28;100.00;98996.69;5111690;28;20027;-67
2022/09/14 03:32:29;;;;;;;31.60;13.25;;;;;;;20.30;100.00;99009.03;5111225;28;20168;-67
2022/09/14 03:34:56;;;;;;;22.63;12.38;;;;;;;20.31;100.00;99002.63;5111158;28;20028;-68
2022/09/14 03:37:21;;;;;;;19.40;12.18;;;;;;;20.24;100.00;99006.91;5110776;28;20027;-68
2022/09/14 03:39:47;;;;;;;19.50;11.90;;;;;;;20.28;100.00;99019.13;5111134;28;20048;-68
2022/09/14 03:42:12;;;;;;;20.23;12.35;;;;;;;20.27;100.00;99022.81;5110887;28;20025;-68
2022/09/14 03:44:37;;;;;;;16.30;11.63;;;;;;;20.27;100.00;99027.38;5110714;28;20020;-68
2022/09/14 03:47:03;;;;;;;26.48;12.73;;;;;;;20.27;100.00;99033.63;5111161;28;20348;-68
2022/09/14 03:49:28;;;;;;;22.48;12.63;;;;;;;20.24;100.00;99028.50;5110926;28;20039;-68
2022/09/14 03:51:54;;;;;;;21.27;12.57;;;;;;;20.27;100.00;99049.84;5110632;28;20031;-68
2022/09/14 03:54:19;;;;;;;18.48;11.30;;;;;;;20.26;100.00;99053.50;5110381;28;20436;-68
2022/09/14 03:56:44;;;;;;;21.52;11.77;;;;;;;20.28;100.00;99053.41;5109856;28;20051;-68
2022/09/14 03:59:10;;;;;;;19.35;11.68;;;;;;;20.28;100.00;99054.22;5110765;28;20030;-68
2022/09/14 04:01:37;;;;;;;19.27;11.70;;;;;;;20.29;100.00;99058.66;5110547;28;20032;-68
2022/09/14 04:04:02;;;;;;;19.85;12.90;;;;;;;20.30;100.00;99049.56;5109775;28;20042;-68
2022/09/14 04:06:27;;;;;;;21.23;13.25;;;;;;;20.20;100.00;99037.84;5109453;28;20028;-68
2022/09/14 04:08:54;;;;;;;22.10;13.02;;;;;;;20.25;100.00;99040.13;5099225;28;20467;-68
2022/09/14 04:11:22;;;;;;;21.25;13.02;;;;;;;20.23;100.00;99048.38;5089003;28;20099;-68
2022/09/14 04:13:48;;;;;;;22.20;13.70;;;;;;;20.19;100.00;99046.94;5108714;28;20027;-68
2022/09/14 04:16:15;;;;;;;19.92;12.18;;;;;;;20.17;100.00;99040.81;5108668;28;20399;-68
2022/09/14 04:18:40;;;;;;;25.38;13.35;;;;;;;20.17;100.00;99042.66;5103320;28;20038;-68
2022/09/14 04:21:12;;;;;;;22.45;12.43;;;;;;;20.15;100.00;99050.88;5089694;28;20032;-68
2022/09/14 04:23:37;;;;;;;21.23;13.55;;;;;;;20.08;100.00;99044.28;5089909;28;20052;-68
2022/09/14 04:26:11;;;;;;;21.15;12.57;;;;;;;20.10;100.00;99042.31;5089980;28;20419;-68
2022/09/14 04:28:36;;;;;;;20.30;11.90;;;;;;;20.06;100.00;99038.16;5089842;28;20020;-68
2022/09/14 04:31:02;;;;;;;22.33;12.80;;;;;;;20.06;100.00;99046.28;5089702;28;20548;-68
2022/09/14 04:33:32;;;;;;;22.25;13.05;;;;;;;20.02;100.00;99047.50;5071693;28;20027;-68
2022/09/14 04:36:00;;;;;;;23.00;12.60;;;;;;;20.05;100.00;99055.34;5089580;28;20114;-67
2022/09/14 04:38:27;;;;;;;19.15;12.23;;;;;;;20.00;100.00;99048.66;5089593;28;20028;-68
2022/09/14 04:40:53;;;;;;;19.83;12.02;;;;;;;20.01;100.00;99063.84;5091989;28;20023;-68
2022/09/14 04:43:18;;;;;;;20.85;12.55;;;;;;;19.97;100.00;99071.34;5071024;28;20032;-67
2022/09/14 04:45:44;;;;;;;20.95;12.70;;;;;;;19.91;100.00;99063.78;5093222;28;20423;-68
2022/09/14 04:48:10;;;;;;;21.98;12.55;;;;;;;19.90;100.00;99077.41;5110007;28;20706;-68
2022/09/14 04:50:35;;;;;;;19.50;11.88;;;;;;;19.89;100.00;99070.28;5110224;28;20520;-67
2022/09/14 04:53:00;;;;;;;20.77;13.45;;;;;;;19.91;100.00;99063.78;5109432;28;20194;-68
2022/09/14 04:55:26;;;;;;;25.30;12.95;;;;;;;19.82;100.00;99069.94;5109548;28;20383;-67
2022/09/14 04:57:52;;;;;;;21.20;12.45;;;;;;;19.88;100.00;99082.94;5109608;28;20023;-67
2022/09/14 05:00:17;;;;;;;28.40;13.23;;;;;;;19.88;100.00;99085.66;5109686;28;20024;-67
2022/09/14 05:02:43;;;;;;;21.52;13.00;;;;;;;19.78;100.00;99084.72;5109289;28;20398;-68
2022/09/14 05:05:09;;;;;;;23.33;13.55;;;;;;;19.75;100.00;99095.78;5109567;28;20403;-67
2022/09/14 05:07:34;;;;;;;26.35;14.38;;;;;;;19.80;100.00;99082.75;5109404;28;20019;-67
2022/09/14 05:09:59;;;;;;;27.95;14.95;;;;;;;19.97;100.00;99087.53;5108863;28;20080;-67
2022/09/14 05:12:25;;;;;;;25.25;14.02;;;;;;;20.02;100.00;99074.50;5109182;28;20106;-67
2022/09/14 05:14:50;;;;;;;23.90;14.68;;;;;;;20.07;100.00;99063.31;5109813;28;20038;-67
2022/09/14 05:17:16;;;;;;;28.30;14.50;;;;;;;20.08;100.00;99063.16;5109324;28;20523;-67
2022/09/14 05:19:41;;;;;;;26.85;14.75;;;;;;;20.09;100.00;99066.72;5092108;28;20028;-67
2022/09/14 05:22:07;;;;;;;22.42;13.57;;;;;;;20.10;100.00;99063.91;5086866;28;20064;-67
2022/09/14 05:24:32;;;;;;;22.35;14.10;;;;;;;20.06;100.00;99046.28;5097333;28;20079;-67
2022/09/14 05:26:57;;;;;;;27.20;14.98;;;;;;;20.10;100.00;99061.19;5107397;28;20031;-67
2022/09/14 05:29:23;;;;;;;27.77;15.15;;;;;;;20.12;100.00;99053.84;5107530;28;20083;-67
2022/09/14 05:31:48;;;;;;;23.45;13.70;;;;;;;20.02;100.00;99044.81;5106842;28;20028;-67
2022/09/14 05:34:14;;;;;;;30.15;15.48;;;;;;;20.13;100.00;99054.69;5107992;28;20129;-67
2022/09/14 05:36:40;;;;;;;26.20;15.52;;;;;;;20.14;100.00;99059.97;5109341;28;20038;-68
2022/09/14 05:39:06;;;;;;;29.40;15.05;;;;;;;20.17;100.00;99058.84;5107545;28;20023;-67
2022/09/14 05:41:32;;;;;;;28.08;14.57;;;;;;;20.13;100.00;99052.81;5070232;28;20164;-67
2022/09/14 05:43:58;;;;;;;23.58;13.25;;;;;;;20.21;100.00;99055.78;5097694;28;20523;-67
2022/09/14 05:46:24;;;;;;;26.05;14.40;;;;;;;20.24;100.00;99050.09;5109035;28;20030;-67
2022/09/14 05:48:50;;;;;;;27.70;15.13;;;;;;;20.31;100.00;99067.47;5108703;28;20027;-67
2022/09/14 05:51:22;;;;;;;30.00;16.08;;;;;;;20.34;100.00;99067.22;5108812;28;20023;-67
2022/09/14 05:53:52;;;;;;;26.98;14.27;;;;;;;20.35;100.00;99062.66;5109111;28;20076;-67
2022/09/14 05:56:19;;;;;;;22.20;13.98;;;;;;;20.40;100.00;99066.69;5109050;28;20455;-67
2022/09/14 05:58:45;;;;;;;25.95;14.10;;;;;;;20.43;100.00;99071.81;5108719;28;20034;-67
2022/09/14 06:01:13;;;;;;;21.50;12.90;;;;;;;20.42;100.00;99080.91;5108708;28;20028;-67
2022/09/14 06:03:39;;;;;;;21.05;12.43;;;;;;;20.43;100.00;99087.16;5108916;28;20128;-67
2022/09/14 06:06:06;;;;;;;21.92;13.00;;;;;;;20.42;100.00;99075.50;5109044;28;20502;-67
2022/09/14 06:08:33;;;;;;;19.63;12.63;;;;;;;20.41;100.00;99073.78;5109059;28;20051;-67
2022/09/14 06:11:10;;;;;;;22.52;12.80;;;;;;;20.44;100.00;99078.94;5108784;28;20419;-67
2022/09/14 06:13:36;;;;;;;20.55;12.68;;;;;;;20.47;100.00;99073.25;5109245;28;20023;-67
2022/09/14 06:16:07;;;;;;;22.52;13.65;;;;;;;20.47;100.00;99057.06;5109004;28;20028;-67
2022/09/14 06:18:35;;;;;;;27.92;12.93;;;;;;;20.56;100.00;99061.63;5102149;28;20077;-67
2022/09/14 06:21:00;;;;;;;23.13;13.52;;;;;;;20.64;100.00;99063.66;5091506;28;20035;-67
2022/09/14 06:23:27;;;;;;;24.92;13.35;;;;;;;20.71;100.00;99054.88;5092109;28;20499;-67
2022/09/14 06:25:57;;;;;;;22.60;13.13;;;;;;;20.80;100.00;99050.50;5092106;28;20110;-67
2022/09/14 06:28:24;;;;;;;24.65;14.82;;;;;;;20.83;100.00;99042.09;5091940;28;20032;-67
2022/09/14 06:30:50;;;;;;;23.10;14.52;;;;;;;20.89;100.00;99042.41;5102445;28;20027;-67
2022/09/14 06:33:16;;;;;;;23.83;13.02;;;;;;;20.95;100.00;99052.66;5112968;28;20023;-67
2022/09/14 06:35:42;;;;;;;26.83;14.50;;;;;;;21.05;100.00;99054.56;5112436;28;20028;-67
2022/09/14 06:38:08;;;;;;;22.45;13.45;;;;;;;21.04;100.00;99048.31;5111898;28;20042;-67
2022/09/14 06:40:33;;;;;;;22.00;12.48;;;;;;;21.08;100.00;99043.47;5112445;28;20416;-67
2022/09/14 06:43:01;;;;;;;25.63;14.80;;;;;;;21.14;100.00;99051.88;5112733;28;20114;-67
2022/09/14 06:45:35;;;;;;;21.40;12.52;;;;;;;21.19;100.00;99060.44;5112650;28;20119;-67
2022/09/14 06:48:01;;;;;;;21.23;13.90;;;;;;;21.21;100.00;99046.78;5111949;28;20511;-67
2022/09/14 06:50:26;;;;;;;23.13;12.95;;;;;;;21.30;100.00;99049.47;5092696;28;20027;-67
2022/09/14 06:52:51;;;;;;;26.23;13.35;;;;;;;21.45;100.00;99041.84;5109572;28;20031;-67
2022/09/14 06:55:17;;;;;;;23.55;14.23;;;;;;;21.88;100.00;99042.25;5111955;28;20024;-66
2022/09/14 06:57:42;;;;;;;27.25;14.98;;;;;;;22.56;100.00;99050.13;5093284;28;20031;-67
2022/09/14 07:00:08;;;;;;;25.63;15.45;;;;;;;23.22;100.00;99059.78;5111752;28;20081;-67
2022/09/14 07:02:34;;;;;;;22.52;14.00;;;;;;;23.99;100.00;99051.06;5112014;28;20036;-67
2022/09/14 07:04:59;;;;;;;22.92;14.82;;;;;;;24.56;100.00;99050.47;5111749;28;20533;-67
2022/09/14 07:07:25;;;;;;;19.77;13.25;;;;;;;24.34;99.52;99053.72;5093458;28;20023;-67
2022/09/14 07:09:50;;;;;;;19.05;11.70;;;;;;;23.91;98.37;99051.84;5111497;28;20027;-66
2022/09/14 07:12:15;;;;;;;20.83;11.20;;;;;;;23.92;100.00;99052.69;5111855;28;20168;-67
2022/09/14 07:14:41;;;;;;;20.73;10.82;;;;;;;24.00;99.12;99060.94;5111564;28;20049;-66
2022/09/14 07:17:06;;;;;;;17.73;11.07;;;;;;;23.99;99.80;99042.91;5110744;28;20407;-67
2022/09/14 07:19:31;;;;;;;20.23;12.02;;;;;;;24.96;98.46;99028.09;5095591;28;20080;-66
2022/09/14 07:21:57;;;;;;;16.83;11.93;;;;;;;25.96;92.56;99033.22;5106070;28;20026;-66
2022/09/14 07:24:22;;;;;;;17.70;10.35;;;;;;;26.55;83.50;99045.63;5110112;28;20043;-66
2022/09/14 07:26:48;;;;;;;16.90;9.90;;;;;;;27.08;81.25;99059.44;5110514;28;20058;-66
2022/09/14 07:29:18;;;;;;;14.50;9.82;;;;;;;27.08;78.84;99061.34;5110407;28;20610;-65
2022/09/14 07:31:51;;;;;;;18.23;10.02;;;;;;;26.34;79.66;99072.59;5110152;28;20085;-65
2022/09/14 07:34:17;;;;;;;;;;;;;;;25.44;84.65;99072.66;5111711;28;20035;-65
2022/09/14 07:36:45;;;;;;;15.48;8.20;;;;;;;24.87;88.32;99080.75;5110455;28;20373;-65
2022/09/14 07:39:14;;;;;;;12.50;8.45;;;;;;;24.55;91.70;99073.22;5111280;28;20028;-65
2022/09/14 07:41:40;;;;;;;14.25;9.18;;;;;;;24.44;93.88;99070.78;5111448;28;20431;-65
2022/09/14 07:44:07;;;;;;;15.63;9.02;;;;;;;24.49;95.60;99072.00;5110529;28;20039;-65
2022/09/14 07:46:42;;;;;;;14.32;8.38;;;;;;;24.93;97.42;99072.78;5110932;28;20030;-65
2022/09/14 07:49:08;;;;;;;13.52;9.00;;;;;;;25.35;96.60;99095.47;5110748;28;20120;-65
2022/09/14 07:51:35;;;;;;;12.32;7.53;;;;;;;25.04;94.95;99080.66;5110853;28;20023;-65
2022/09/14 07:54:01;;;;;;;10.98;7.28;;;;;;;24.83;96.04;99093.81;5110733;28;20031;-65
2022/09/14 07:56:27;;;;;;;9.52;6.20;;;;;;;24.58;97.74;99102.81;5110614;28;20031;-65
2022/09/14 07:58:55;;;;;;;15.23;7.47;;;;;;;24.32;99.98;99116.41;5092262;28;20387;-64
2022/09/14 08:01:21;;;;;;;9.00;5.63;;;;;;;24.07;100.00;99109.06;5092512;28;20159;-64
2022/09/14 08:03:47;;;;;;;5.93;4.03;;;;;;;23.88;100.00;99109.19;5110271;28;20037;-64
2022/09/14 08:06:14;;;;;;;9.20;4.65;;;;;;;23.81;100.00;99121.69;5110588;28;20379;-64
2022/09/14 08:08:42;;;;;;;7.90;4.28;;;;;;;23.67;100.00;99118.66;5110818;28;20035;-65
2022/09/14 08:11:11;;;;;;;6.25;4.45;;;;;;;23.58;100.00;99125.84;5110695;28;20479;-64
2022/09/14 08:13:39;;;;;;;8.32;4.18;;;;;;;23.56;100.00;99124.31;5110416;28;20131;-64
2022/09/14 08:16:05;;;;;;;6.82;3.70;;;;;;;23.60;100.00;99133.84;5110217;28;20027;-64
2022/09/14 08:18:32;;;;;;;10.10;4.40;;;;;;;23.62;100.00;99129.13;5102744;28;20047;-64
2022/09/14 08:21:03;;;;;;;5.38;3.38;;;;;;;23.67;100.00;99119.53;5088555;28;20107;-64
2022/09/14 08:23:28;;;;;;;5.20;3.50;;;;;;;23.82;100.00;99111.69;5088263;28;20054;-64
2022/09/14 08:25:53;;;;;;;4.53;2.97;;;;;;;24.06;100.00;99114.66;5088672;28;20470;-64
2022/09/14 08:28:19;;;;;;;8.27;3.70;;;;;;;24.23;100.00;99116.50;5106242;28;20024;-64
2022/09/14 08:30:45;;;;;;;6.40;3.42;;;;;;;24.49;100.00;99115.53;5108565;28;20059;-64
2022/09/14 08:33:11;;;;;;;5.03;3.22;;;;;;;24.84;100.00;99111.88;5109503;28;20035;-65
2022/09/14 08:35:43;;;;;;;6.63;3.35;;;;;;;25.38;100.00;99111.47;5110310;28;20402;-64
2022/09/14 08:38:09;;;;;;;5.78;2.90;;;;;;;26.13;97.84;99123.22;5110462;28;20506;-64
2022/09/14 08:40:42;;;;;;;4.25;2.65;;;;;;;26.49;92.90;99113.66;5110094;28;20058;-64
2022/09/14 08:43:10;;;;;;;5.78;3.53;;;;;;;27.11;90.05;99126.50;5109644;28;20032;-64
2022/09/14 08:45:42;;;;;;;5.30;2.75;;;;;;;27.88;86.57;99128.38;5109779;28;20034;-64
2022/09/14 08:48:19;;;;;;;4.47;2.55;;;;;;;27.86;83.64;99123.09;5110330;28;20024;-64
2022/09/14 08:50:44;;;;;;;4.70;2.33;;;;;;;28.12;83.29;99114.59;5109724;28;20024;-64
2022/09/14 08:53:10;;;;;;;4.25;1.83;;;;;;;28.49;80.13;99117.34;5109754;28;20076;-64
2022/09/14 08:55:47;;;;;;;5.90;2.58;;;;;;;29.02;76.95;99116.31;5110010;28;20387;-64
2022/09/14 08:58:45;;;;;;;6.07;2.13;;;;;;;29.53;76.55;99115.34;5109200;28;20047;-64
2022/09/14 09:01:31;;;;;;;3.67;2.13;;;;;;;29.87;73.27;99125.72;5072946;28;20174;-65
2022/09/14 09:04:21;;;;;;;5.55;2.30;;;;;;;30.07;71.19;99124.88;5087801;28;20062;-65
2022/09/14 09:07:16;;;;;;;3.78;2.00;;;;;;;30.08;70.05;99121.09;5087935;28;20042;-64
2022/09/14 09:09:45;;;;;;;3.50;2.17;;;;;;;29.83;70.95;99122.50;5086906;28;20022;-65
2022/09/14 09:12:23;;;;;;;5.53;2.28;;;;;;;30.07;71.02;99111.16;5085895;28;20116;-65
2022/09/14 09:14:53;;;;;;;6.70;1.92;;;;;;;30.49;68.44;99113.94;5085925;28;20749;-65
2022/09/14 09:17:37;;;;;;;3.58;2.10;;;;;;;31.10;67.87;99101.31;5087269;28;20126;-65
2022/09/14 09:20:12;;;;;;;4.03;1.75;;;;;;;31.37;67.84;99102.31;5102850;28;20031;-64
2022/09/14 09:22:44;;;;;;;4.00;1.73;;;;;;;31.54;65.56;99093.50;5107462;28;20051;-65
2022/09/14 09:25:18;;;;;;;3.67;2.08;;;;;;;31.46;62.64;99090.09;5108895;28;20084;-66
2022/09/14 09:27:44;;;;;;;3.72;1.77;;;;;;;31.49;66.05;99079.53;5109712;28;20547;-65
2022/09/14 09:30:14;;;;;;;3.60;2.03;;;;;;;31.63;63.70;99080.44;5107793;28;20047;-67
2022/09/14 09:32:40;;;;;;;4.03;1.73;;;;;;;31.75;62.99;99084.25;5104913;28;20039;-66
2022/09/14 09:35:06;;;;;;;3.85;2.17;;;;;;;31.97;63.71;99083.09;5106849;28;20537;-65
2022/09/14 09:37:37;;;;;;;4.45;1.55;;;;;;;32.28;63.19;99080.59;5088219;28;20024;-66
2022/09/14 09:40:13;;;;;;;2.33;1.55;;;;;;;31.96;61.42;99081.41;5106161;28;20027;-66
2022/09/14 09:43:09;;;;;;;3.97;1.63;;;;;;;31.80;62.48;99070.72;5106893;28;20070;-63
2022/09/14 09:46:02;;;;;;;3.97;1.80;;;;;;;32.12;60.65;99061.75;5108309;28;20059;-62
2022/09/14 09:48:38;;;;;;;5.80;1.50;;;;;;;32.07;59.04;99048.63;5093251;28;20503;-64
2022/09/14 09:51:09;;;;;;;5.10;1.70;;;;;;;32.40;58.06;99058.81;5089017;28;20516;-68
2022/09/14 09:53:37;;;;;;;5.53;1.65;;;;;;;32.55;59.49;99038.28;5089435;28;20026;-68
2022/09/14 09:56:04;;;;;;;4.75;1.70;;;;;;;32.06;58.87;99051.56;5092071;28;20119;-64
2022/09/14 09:58:32;;;;;;;5.28;1.48;;;;;;;31.38;60.36;99043.53;5113062;28;20028;-67
2022/09/14 10:01:04;;;;;;;4.22;1.50;;;;;;;31.24;61.22;99030.75;5116499;28;20020;-73
2022/09/14 10:03:38;;;;;;;3.35;1.55;;;;;;;30.83;62.56;99033.50;5114277;28;20100;-68
2022/09/14 10:06:09;;;;;;;2.35;1.40;;;;;;;30.58;62.88;99018.50;5093631;28;20122;-64
2022/09/14 10:08:41;;;;;;;6.10;1.92;;;;;;;30.88;64.31;99003.53;5111225;28;20028;-67
2022/09/14 10:11:28;;;;;;;3.08;1.80;;;;;;;31.19;61.92;99005.78;5111698;28;20027;-67
2022/09/14 10:13:54;;;;;;;2.28;1.45;;;;;;;31.84;61.77;98984.84;5092653;28;20138;-67
2022/09/14 10:16:19;;;;;;;3.17;1.40;;;;;;;31.69;59.47;98983.34;5111093;28;20110;-70
2022/09/14 10:18:51;;;;;;;3.50;1.98;;;;;;;31.63;57.49;98981.44;5111418;28;20028;-69
2022/09/14 10:21:18;;;;;;;3.90;1.60;;;;;;;31.66;59.69;98983.75;5112498;28;20028;-67
2022/09/14 10:23:44;;;;;;;5.53;1.60;;;;;;;31.78;58.79;98973.84;5113460;28;20051;-71
2022/09/14 10:26:09;;;;;;;4.30;1.60;;;;;;;31.71;58.47;98979.31;5113364;28;20169;-67
2022/09/14 10:28:35;;;;;;;3.83;1.65;;;;;;;31.42;58.35;98984.31;5094763;28;20027;-67
2022/09/14 10:31:21;;;;;;;3.60;1.85;;;;;;;31.40;59.04;98976.28;5113055;28;20039;-68
2022/09/14 10:33:55;;;;;;;3.05;1.35;;;;;;;31.83;57.66;98971.28;5121973;28;20035;-71
2022/09/14 10:36:23;;;;;;;3.78;1.45;;;;;;;32.53;58.09;98963.28;5109812;28;20026;-74
2022/09/14 10:38:57;;;;;;;3.42;1.65;;;;;;;32.70;57.04;98958.97;5117624;28;20483;-69
2022/09/14 10:41:26;;;;;;;5.32;1.80;;;;;;;33.16;53.59;98953.34;5113662;28;20430;-67
2022/09/14 10:44:04;;;;;;;1.85;1.20;;;;;;;33.44;53.60;98951.09;5111891;28;20091;-68
2022/09/14 10:46:42;;;;;;;3.95;1.45;;;;;;;33.77;50.77;98950.88;5112961;28;20110;-67
2022/09/14 10:49:17;;;;;;;5.78;1.67;;;;;;;33.49;51.90;98954.03;5112813;28;20046;-69
2022/09/14 10:52:19;;;;;;;3.38;1.73;;;;;;;33.23;53.08;98948.63;5111826;28;20054;-71
2022/09/14 10:55:00;;;;;;;3.63;1.50;;;;;;;33.26;55.10;98948.19;5114117;28;20041;-72
2022/09/14 10:58:00;;;;;;;4.22;1.33;;;;;;;33.82;52.34;98940.00;5112718;28;20532;-68
2022/09/14 11:00:32;;;;;;;4.70;1.85;;;;;;;33.97;52.60;98935.88;5112478;28;20047;-68
2022/09/14 11:03:26;;;;;;;2.80;1.50;;;;;;;34.18;50.84;98934.63;5109937;28;20897;-68
2022/09/14 11:06:00;;;;;;;4.15;1.17;;;;;;;34.32;51.09;98938.94;5090682;28;20020;-67
2022/09/14 11:08:44;;;;;;;3.22;1.40;;;;;;;34.28;51.57;98926.69;5089920;28;20045;-67
2022/09/14 11:11:22;;;;;;;3.15;1.38;;;;;;;34.17;50.04;98924.66;5088483;28;20354;-67
2022/09/14 11:14:25;;;;;;;3.72;1.52;;;;;;;33.26;51.08;98913.19;5088724;28;20032;-67
2022/09/14 11:17:00;;;;;;;;;;;;;;;32.30;53.29;98918.81;5006688;28;20807;-67
2022/09/14 11:19:46;;;;;;;3.25;1.90;;;;;;;31.61;57.83;98918.41;5093435;28;20006;-67
2022/09/14 11:22:23;;;;;;;3.55;1.63;;;;;;;30.99;58.80;98914.22;5108350;28;20027;-67
2022/09/14 11:24:59;;;;;;;6.85;1.65;;;;;;;30.52;61.88;98913.13;5111412;28;20022;-67
2022/09/14 11:27:57;;;;;;;2.65;1.60;;;;;;;30.09;63.36;98914.28;5111290;28;20049;-67
2022/09/14 11:30:41;;;;;;;5.50;2.15;;;;;;;29.52;64.72;98916.31;5111139;28;20047;-67
2022/09/14 11:33:12;;;;;;;;;;;;;;;29.37;67.23;98921.03;5111734;28;20023;-67
2022/09/14 11:35:44;;;;;;;2.17;1.48;;;;;;;29.04;67.42;98917.91;5111147;28;19944;-67